createdAt,value
2022-10-15T03:58:59.168Z,1002.60
2022-10-15T04:00:00.879Z,1002.60
2022-10-15T04:00:59.554Z,1002.63
2022-10-15T04:02:01.179Z,1002.59
2022-10-15T04:03:01.396Z,1002.59
2022-10-15T04:03:59.810Z,1002.57
2022-10-15T04:04:59.979Z,1002.56
2022-10-15T04:06:02.747Z,1002.57
2022-10-15T04:07:00.219Z,1002.60
2022-10-15T04:08:03.389Z,1002.60
2022-10-15T04:09:00.561Z,1002.54
2022-10-15T04:10:00.612Z,1002.59
2022-10-15T04:11:00.758Z,1002.60
2022-10-15T04:12:00.930Z,1002.62
2022-10-15T04:13:02.824Z,1002.60
2022-10-15T04:14:02.151Z,1002.65
2022-10-15T04:15:01.255Z,1002.67
2022-10-15T04:16:02.986Z,1002.65
2022-10-15T04:17:01.567Z,1002.64
2022-10-15T04:18:01.728Z,1002.59
2022-10-15T04:19:02.360Z,1002.57
2022-10-15T04:20:03.587Z,1002.57
2022-10-15T04:21:03.316Z,1002.56
2022-10-15T04:22:02.295Z,1002.56
2022-10-15T04:23:03.414Z,1002.55
2022-10-15T04:24:02.523Z,1002.55
2022-10-15T04:25:04.265Z,1002.54
2022-10-15T04:26:03.825Z,1002.62
2022-10-15T04:27:03.015Z,1002.60
2022-10-15T04:28:03.106Z,1002.56
2022-10-15T04:29:04.896Z,1002.55
2022-10-15T04:30:03.426Z,1002.56
2022-10-15T04:31:03.505Z,1002.61
2022-10-15T04:32:03.635Z,1002.64
2022-10-15T04:33:03.790Z,1002.66
2022-10-15T04:34:05.491Z,1002.64
2022-10-15T04:35:04.035Z,1002.69
2022-10-15T04:36:04.182Z,1002.62
2022-10-15T04:37:04.313Z,1002.57
2022-10-15T04:38:04.446Z,1002.55
2022-10-15T04:39:08.570Z,1002.57
2022-10-15T04:40:06.443Z,1002.54
2022-10-15T04:41:06.655Z,1002.54
2022-10-15T04:42:06.874Z,1002.54
2022-10-15T04:43:05.166Z,1002.51
2022-10-15T04:44:06.871Z,1002.53
2022-10-15T04:45:05.462Z,1002.51
2022-10-15T04:46:05.592Z,1002.52
2022-10-15T04:47:07.323Z,1002.49
2022-10-15T04:48:05.835Z,1002.47
2022-10-15T04:49:07.061Z,1002.51
2022-10-15T04:50:06.170Z,1002.52
2022-10-15T04:51:07.878Z,1002.52
2022-10-15T04:52:06.382Z,1002.50
2022-10-15T04:53:07.525Z,1002.55
2022-10-15T04:54:06.630Z,1002.51
2022-10-15T04:55:08.370Z,1002.59
2022-10-15T04:56:06.880Z,1002.57
2022-10-15T04:57:07.009Z,1002.56
2022-10-15T04:58:07.160Z,1002.58
2022-10-15T04:59:09.374Z,1002.61
2022-10-15T05:00:07.460Z,1002.60
2022-10-15T05:01:07.590Z,1002.65
2022-10-15T05:02:07.747Z,1002.62
2022-10-15T05:03:07.899Z,1002.57
2022-10-15T05:04:09.115Z,1002.58
2022-10-15T05:05:08.109Z,1002.52
2022-10-15T05:06:08.249Z,1002.57
2022-10-15T05:07:08.383Z,1002.58
2022-10-15T05:08:10.128Z,1002.56
2022-10-15T05:09:10.343Z,1002.58
2022-10-15T05:10:08.838Z,1002.59
2022-10-15T05:11:09.928Z,1002.58
2022-10-15T05:12:10.669Z,1002.58
2022-10-15T05:13:09.239Z,1002.59
2022-10-15T05:14:10.369Z,1002.59
2022-10-15T05:15:11.089Z,1002.58
2022-10-15T05:16:11.309Z,1002.59
2022-10-15T05:17:09.760Z,1002.62
2022-10-15T05:18:09.949Z,1002.64
2022-10-15T05:19:11.148Z,1002.60
2022-10-15T05:20:10.172Z,1002.63
2022-10-15T05:21:10.297Z,1002.64
2022-10-15T05:22:12.030Z,1002.64
2022-10-15T05:23:10.586Z,1002.66
2022-10-15T05:24:12.473Z,1002.63
2022-10-15T05:25:11.854Z,1002.66
2022-10-15T05:26:12.018Z,1002.67
2022-10-15T05:27:12.751Z,1002.66
2022-10-15T05:28:11.307Z,1002.70
2022-10-15T05:29:11.405Z,1002.69
2022-10-15T05:30:11.538Z,1002.70
2022-10-15T05:31:17.581Z,1002.69
2022-10-15T05:32:14.369Z,1002.71
2022-10-15T05:33:11.886Z,1002.70
2022-10-15T05:34:12.025Z,1002.74
2022-10-15T05:35:12.232Z,1002.76
2022-10-15T05:36:12.285Z,1002.74
2022-10-15T05:37:14.001Z,1002.70
2022-10-15T05:38:12.573Z,1002.71
2022-10-15T05:39:12.745Z,1002.66
2022-10-15T05:40:13.359Z,1002.66
2022-10-15T05:41:12.993Z,1002.64
2022-10-15T05:42:14.730Z,1002.70
2022-10-15T05:43:13.265Z,1002.67
2022-10-15T05:44:14.984Z,1002.63
2022-10-15T05:45:13.590Z,1002.71
2022-10-15T05:46:13.764Z,1002.68
2022-10-15T05:47:13.846Z,1002.69
2022-10-15T05:48:14.892Z,1002.70
2022-10-15T05:49:15.814Z,1002.67
2022-10-15T05:50:14.244Z,1002.71
2022-10-15T05:51:14.405Z,1002.70
2022-10-15T05:52:14.501Z,1002.70
2022-10-15T05:53:14.654Z,1002.70
2022-10-15T05:54:16.382Z,1002.73
2022-10-15T05:55:14.923Z,1002.72
2022-10-15T05:56:16.074Z,1002.70
2022-10-15T05:57:16.889Z,1002.71
2022-10-15T05:58:16.300Z,1002.70
2022-10-15T05:59:15.733Z,1002.74
2022-10-15T06:00:15.635Z,1002.73
2022-10-15T06:01:16.851Z,1002.75
2022-10-15T06:02:16.259Z,1002.76
2022-10-15T06:03:16.031Z,1002.75
2022-10-15T06:04:16.192Z,1002.76
2022-10-15T06:05:17.929Z,1002.78
2022-10-15T06:06:16.524Z,1002.74
2022-10-15T06:07:16.662Z,1002.75
2022-10-15T06:08:16.880Z,1002.78
2022-10-15T06:09:18.047Z,1002.77
2022-10-15T06:10:17.078Z,1002.81
2022-10-15T06:11:17.362Z,1002.83
2022-10-15T06:12:17.405Z,1002.83
2022-10-15T06:13:17.628Z,1002.79
2022-10-15T06:14:18.774Z,1002.84
2022-10-15T06:15:17.853Z,1002.84
2022-10-15T06:16:21.086Z,1002.85
2022-10-15T06:17:21.158Z,1002.83
2022-10-15T06:18:18.269Z,1002.89
2022-10-15T06:19:18.458Z,1002.80
2022-10-15T06:20:18.578Z,1002.87
2022-10-15T06:21:18.749Z,1002.91
2022-10-15T06:22:20.489Z,1002.87
2022-10-15T06:23:19.008Z,1002.88
2022-10-15T06:24:19.233Z,1002.90
2022-10-15T06:25:20.953Z,1002.91
2022-10-15T06:26:20.445Z,1002.93
2022-10-15T06:27:21.402Z,1002.89
2022-10-15T06:28:19.805Z,1002.87
2022-10-15T06:29:21.427Z,1002.89
2022-10-15T06:30:19.978Z,1002.93
2022-10-15T06:31:20.118Z,1002.90
2022-10-15T06:32:20.300Z,1002.97
2022-10-15T06:33:20.444Z,1002.96
2022-10-15T06:34:21.660Z,1002.95
2022-10-15T06:35:20.629Z,1002.98
2022-10-15T06:36:20.806Z,1003.02
2022-10-15T06:37:21.284Z,1003.00
2022-10-15T06:38:22.680Z,1003.01
2022-10-15T06:39:21.218Z,1003.03
2022-10-15T06:40:21.318Z,1003.03
2022-10-15T06:41:23.059Z,1003.00
2022-10-15T06:42:21.637Z,1003.08
2022-10-15T06:43:21.775Z,1003.10
2022-10-15T06:44:21.947Z,1003.13
2022-10-15T06:45:23.656Z,1003.15
2022-10-15T06:46:22.208Z,1003.15
2022-10-15T06:47:22.694Z,1003.12
2022-10-15T06:48:24.054Z,1003.16
2022-10-15T06:49:22.605Z,1003.17
2022-10-15T06:50:22.714Z,1003.19
2022-10-15T06:51:22.842Z,1003.14
2022-10-15T06:52:24.594Z,1003.18
2022-10-15T06:53:23.147Z,1003.20
2022-10-15T06:54:23.294Z,1003.19
2022-10-15T06:55:23.475Z,1003.19
2022-10-15T06:56:25.203Z,1003.16
2022-10-15T06:57:24.056Z,1003.20
2022-10-15T06:58:23.847Z,1003.22
2022-10-15T06:59:24.022Z,1003.24
2022-10-15T07:00:24.148Z,1003.26
2022-10-15T07:01:25.324Z,1003.26
2022-10-15T07:02:24.700Z,1003.23
2022-10-15T07:03:25.552Z,1003.25
2022-10-15T07:04:25.627Z,1003.20
2022-10-15T07:05:24.825Z,1003.20
2022-10-15T07:06:26.598Z,1003.20
2022-10-15T07:07:25.132Z,1003.22
2022-10-15T07:08:25.232Z,1003.20
2022-10-15T07:09:26.452Z,1003.21
2022-10-15T07:10:25.700Z,1003.21
2022-10-15T07:11:26.736Z,1003.20
2022-10-15T07:12:26.138Z,1003.21
2022-10-15T07:13:25.902Z,1003.17
2022-10-15T07:14:26.060Z,1003.12
2022-10-15T07:15:26.232Z,1003.17
2022-10-15T07:16:27.972Z,1003.18
2022-10-15T07:17:26.471Z,1003.20
2022-10-15T07:18:26.620Z,1003.19
2022-10-15T07:19:26.770Z,1003.14
2022-10-15T07:20:27.048Z,1003.17
2022-10-15T07:21:28.674Z,1003.16
2022-10-15T07:22:28.913Z,1003.16
2022-10-15T07:23:27.984Z,1003.21
2022-10-15T07:24:27.380Z,1003.16
2022-10-15T07:25:27.529Z,1003.14
2022-10-15T07:26:29.298Z,1003.15
2022-10-15T07:27:27.829Z,1003.13
2022-10-15T07:28:29.605Z,1003.14
2022-10-15T07:29:28.069Z,1003.17
2022-10-15T07:30:28.235Z,1003.15
2022-10-15T07:31:28.417Z,1003.16
2022-10-15T07:32:28.491Z,1003.18
2022-10-15T07:33:30.219Z,1003.14
2022-10-15T07:34:30.449Z,1003.15
2022-10-15T07:35:29.010Z,1003.15
2022-10-15T07:36:29.117Z,1003.13
2022-10-15T07:37:29.248Z,1003.16
2022-10-15T07:38:31.049Z,1003.18
2022-10-15T07:39:29.519Z,1003.18
2022-10-15T07:40:29.688Z,1003.16
2022-10-15T07:41:30.900Z,1003.19
2022-10-15T07:42:30.027Z,1003.16
2022-10-15T07:43:30.107Z,1003.15
2022-10-15T07:44:31.878Z,1003.15
2022-10-15T07:45:30.377Z,1003.13
2022-10-15T07:46:30.473Z,1003.08
2022-10-15T07:47:32.197Z,1003.13
2022-10-15T07:48:30.788Z,1003.13
2022-10-15T07:49:32.567Z,1003.11
2022-10-15T07:50:34.299Z,1003.16
2022-10-15T07:51:33.827Z,1003.11
2022-10-15T07:52:33.068Z,1003.12
2022-10-15T07:53:32.800Z,1003.12
2022-10-15T07:54:31.711Z,1003.09
2022-10-15T07:55:33.416Z,1003.09
2022-10-15T07:56:32.035Z,1003.07
2022-10-15T07:57:32.155Z,1003.04
2022-10-15T07:58:33.884Z,1003.06
2022-10-15T07:59:34.097Z,1003.14
2022-10-15T08:01:34.275Z,1003.07
2022-10-15T08:02:32.866Z,1003.16
2022-10-15T08:03:34.634Z,1003.07
2022-10-15T08:04:33.197Z,1003.10
2022-10-15T08:05:34.885Z,1003.04
2022-10-15T08:06:34.357Z,1003.10
2022-10-15T08:07:35.116Z,1003.13
2022-10-15T08:08:33.698Z,1003.17
2022-10-15T08:09:35.470Z,1003.16
2022-10-15T08:10:34.005Z,1003.12
2022-10-15T08:11:35.772Z,1003.18
2022-10-15T08:12:34.224Z,1003.15
2022-10-15T08:13:35.954Z,1003.22
2022-10-15T08:14:34.544Z,1003.20
2022-10-15T08:15:36.275Z,1003.22
2022-10-15T08:16:34.913Z,1003.23
2022-10-15T08:17:34.967Z,1003.18
2022-10-15T08:18:35.145Z,1003.26
2022-10-15T08:19:36.883Z,1003.23
2022-10-15T08:20:35.454Z,1003.20
2022-10-15T08:21:37.199Z,1003.20
2022-10-15T08:22:35.734Z,1003.17
2022-10-15T08:23:37.475Z,1003.17
2022-10-15T08:24:36.053Z,1003.24
2022-10-15T08:25:37.781Z,1003.22
2022-10-15T08:26:39.463Z,1003.22
2022-10-15T08:27:36.485Z,1003.22
2022-10-15T08:28:38.232Z,1003.26
2022-10-15T08:29:36.832Z,1003.26
2022-10-15T08:30:38.562Z,1003.29
2022-10-15T08:31:37.142Z,1003.30
2022-10-15T08:32:38.888Z,1003.32
2022-10-15T08:33:37.414Z,1003.30
2022-10-15T08:34:39.161Z,1003.30
2022-10-15T08:35:37.691Z,1003.29
2022-10-15T08:36:39.439Z,1003.30
2022-10-15T08:37:37.958Z,1003.30
2022-10-15T08:38:38.125Z,1003.30
2022-10-15T08:39:38.215Z,1003.21
2022-10-15T08:40:38.439Z,1003.27
2022-10-15T08:41:39.627Z,1003.24
2022-10-15T08:42:38.620Z,1003.24
2022-10-15T08:43:38.760Z,1003.25
2022-10-15T08:44:38.923Z,1003.25
2022-10-15T08:45:40.656Z,1003.23
2022-10-15T08:46:40.880Z,1003.22
2022-10-15T08:47:39.258Z,1003.25
2022-10-15T08:48:39.406Z,1003.22
2022-10-15T08:49:39.479Z,1003.27
2022-10-15T08:50:39.567Z,1003.24
2022-10-15T08:51:40.795Z,1003.23
2022-10-15T08:52:39.883Z,1003.21
2022-10-15T08:53:39.978Z,1003.21
2022-10-15T08:54:40.078Z,1003.25
2022-10-15T08:55:41.818Z,1003.22
2022-10-15T08:56:42.038Z,1003.21
2022-10-15T08:57:42.293Z,1003.18
2022-10-15T08:58:43.531Z,1003.20
2022-10-15T08:59:40.747Z,1003.15
2022-10-15T09:00:42.500Z,1003.16
2022-10-15T09:01:42.707Z,1003.18
2022-10-15T09:02:43.039Z,1003.12
2022-10-15T09:03:43.217Z,1003.14
2022-10-15T09:04:43.439Z,1003.11
2022-10-15T09:05:41.557Z,1003.17
2022-10-15T09:06:42.297Z,1003.14
2022-10-15T09:07:41.882Z,1003.14
2022-10-15T09:08:41.968Z,1003.16
2022-10-15T09:09:42.137Z,1003.14
2022-10-15T09:10:43.868Z,1003.12
2022-10-15T09:11:43.107Z,1003.12
2022-10-15T09:12:44.327Z,1003.17
2022-10-15T09:13:44.566Z,1003.14
2022-10-15T09:14:44.789Z,1003.13
2022-10-15T09:15:42.955Z,1003.11
2022-10-15T09:16:43.816Z,1003.13
2022-10-15T09:17:44.799Z,1003.13
2022-10-15T09:18:43.355Z,1003.14
2022-10-15T09:19:43.436Z,1003.19
2022-10-15T09:20:44.675Z,1003.19
2022-10-15T09:21:43.705Z,1003.15
2022-10-15T09:22:43.883Z,1003.16
2022-10-15T09:23:44.047Z,1003.11
2022-10-15T09:24:44.155Z,1003.12
2022-10-15T09:25:45.885Z,1003.11
2022-10-15T09:26:46.114Z,1003.11
2022-10-15T09:27:46.354Z,1003.07
2022-10-15T09:28:46.618Z,1003.07
2022-10-15T09:29:46.305Z,1003.07
2022-10-15T09:30:47.535Z,1002.96
2022-10-15T09:31:46.837Z,1003.01
2022-10-15T09:32:45.204Z,1002.99
2022-10-15T09:33:46.957Z,1003.03
2022-10-15T09:34:47.224Z,1003.09
2022-10-15T09:35:45.593Z,1003.07
2022-10-15T09:36:47.323Z,1003.05
2022-10-15T09:37:47.585Z,1003.06
2022-10-15T09:38:46.005Z,1003.09
2022-10-15T09:39:47.758Z,1003.05
2022-10-15T09:40:47.275Z,1003.03
2022-10-15T09:41:46.385Z,1003.06
2022-10-15T09:42:48.074Z,1003.03
2022-10-15T09:43:46.620Z,1002.97
2022-10-15T09:44:48.352Z,1002.94
2022-10-15T09:45:50.302Z,1002.94
2022-10-15T09:46:48.532Z,1002.92
2022-10-15T09:47:48.765Z,1002.93
2022-10-15T09:48:48.982Z,1002.91
2022-10-15T09:49:49.213Z,1002.91
2022-10-15T09:50:49.485Z,1002.95
2022-10-15T09:51:49.225Z,1002.95
2022-10-15T09:52:49.484Z,1002.98
2022-10-15T09:53:49.712Z,1002.92
2022-10-15T09:54:49.973Z,1002.99
2022-10-15T09:55:50.245Z,1002.97
2022-10-15T09:56:48.428Z,1003.00
2022-10-15T09:57:50.166Z,1003.05
2022-10-15T09:58:50.382Z,1003.02
2022-10-15T09:59:49.681Z,1003.01
2022-10-15T10:00:49.870Z,1003.00
2022-10-15T10:01:49.091Z,1003.04
2022-10-15T10:13:12.127Z,1003.03
2022-10-15T10:14:13.253Z,1003.00
2022-10-15T10:15:12.352Z,1003.02
2022-10-15T10:16:14.082Z,1002.98
2022-10-15T10:17:14.323Z,1003.01
2022-10-15T10:18:12.707Z,1003.04
2022-10-15T10:19:15.436Z,1003.03
2022-10-15T10:20:14.142Z,1002.99
2022-10-15T10:21:13.112Z,1003.03
2022-10-15T10:22:13.266Z,1003.05
2022-10-15T10:23:15.040Z,1003.08
2022-10-15T10:24:13.527Z,1003.05
2022-10-15T10:25:15.266Z,1003.07
2022-10-15T10:26:13.834Z,1003.02
2022-10-15T10:27:14.002Z,1003.00
2022-10-15T10:28:15.754Z,1003.05
2022-10-15T10:29:22.325Z,1003.03
2022-10-15T10:30:16.400Z,1003.01
2022-10-15T10:31:16.122Z,1002.95
2022-10-15T10:32:14.721Z,1002.98
2022-10-15T10:33:14.854Z,1002.96
2022-10-15T10:34:14.941Z,1002.99
2022-10-15T10:35:15.094Z,1003.01
2022-10-15T10:36:15.255Z,1003.01
2022-10-15T10:37:16.957Z,1003.00
2022-10-15T10:38:17.160Z,1003.02
2022-10-15T10:39:15.683Z,1002.99
2022-10-15T10:40:15.794Z,1003.00
2022-10-15T10:41:17.067Z,1003.01
2022-10-15T10:42:16.029Z,1003.00
2022-10-15T10:43:17.768Z,1002.96
2022-10-15T10:44:16.311Z,1002.98
2022-10-15T10:45:18.581Z,1002.99
2022-10-15T10:46:16.569Z,1002.97
2022-10-15T10:47:18.280Z,1002.91
2022-10-15T10:48:16.847Z,1002.95
2022-10-15T10:49:16.994Z,1002.88
2022-10-15T10:50:17.113Z,1002.92
2022-10-15T10:51:19.431Z,1002.88
2022-10-15T10:52:18.932Z,1002.90
2022-10-15T10:53:18.489Z,1002.94
2022-10-15T10:54:17.649Z,1002.92
2022-10-15T10:55:17.755Z,1002.88
2022-10-15T10:56:17.908Z,1002.85
2022-10-15T10:57:18.009Z,1002.81
2022-10-15T10:58:22.177Z,1002.78
2022-10-15T10:59:19.302Z,1002.74
2022-10-15T11:00:20.028Z,1002.72
2022-10-15T11:01:19.614Z,1002.69
2022-10-15T11:02:18.770Z,1002.59
2022-10-15T11:03:18.876Z,1002.57
2022-10-15T11:04:20.595Z,1002.49
2022-10-15T11:05:19.186Z,1002.45
2022-10-15T11:06:19.353Z,1002.46
2022-10-15T11:07:20.380Z,1002.44
2022-10-15T11:08:19.606Z,1002.35
2022-10-15T11:09:19.799Z,1002.34
2022-10-15T11:10:21.521Z,1002.35
2022-10-15T11:11:20.009Z,1002.31
2022-10-15T11:12:21.781Z,1002.33
2022-10-15T11:13:21.309Z,1002.23
2022-10-15T11:14:20.438Z,1002.26
2022-10-15T11:15:20.586Z,1002.31
2022-10-15T11:16:20.734Z,1002.26
2022-10-15T11:17:22.766Z,1002.26
2022-10-15T11:18:21.027Z,1002.23
2022-10-15T11:19:50.326Z,1002.21
2022-10-15T11:20:38.985Z,1002.15
2022-10-15T11:21:22.506Z,1002.15
2022-10-15T11:22:21.748Z,1002.10
2022-10-15T11:23:26.467Z,1002.08
2022-10-15T11:24:21.914Z,1002.13
2022-10-15T11:25:22.064Z,1002.11
2022-10-15T11:26:23.171Z,1002.09
2022-10-15T11:27:22.429Z,1002.12
2022-10-15T11:28:24.140Z,1002.11
2022-10-15T11:29:24.313Z,1002.09
2022-10-15T11:30:23.723Z,1002.07
2022-10-15T11:32:25.735Z,1002.08
2022-10-15T11:33:23.095Z,1002.04
2022-10-15T11:34:24.834Z,1002.06
2022-10-15T11:35:40.941Z,1002.01
2022-10-15T11:36:26.076Z,1001.98
2022-10-15T11:37:25.283Z,1002.07
2022-10-15T11:38:23.752Z,1001.97
2022-10-15T11:39:23.974Z,1002.01
2022-10-15T11:40:24.070Z,1002.02
2022-10-15T11:41:25.252Z,1002.01
2022-10-15T11:42:24.588Z,1002.01
2022-10-15T11:43:24.392Z,1002.03
2022-10-15T11:44:24.551Z,1002.02
2022-10-15T11:45:24.667Z,1001.93
2022-10-15T11:46:26.394Z,1002.09
2022-10-15T11:47:24.977Z,1001.95
2022-10-15T11:48:26.691Z,1001.97
2022-10-15T11:49:25.338Z,1001.97
2022-10-15T11:50:25.442Z,1001.96
2022-10-15T11:51:26.563Z,1002.03
2022-10-15T11:52:25.989Z,1001.98
2022-10-15T11:53:26.923Z,1002.03
2022-10-15T11:54:25.958Z,1001.99
2022-10-15T11:55:27.051Z,1001.96
2022-10-15T11:56:26.211Z,1001.99
2022-10-15T11:57:26.372Z,1001.91
2022-10-15T11:58:28.090Z,1001.87
2022-10-15T11:59:26.648Z,1001.87
2022-10-15T12:00:26.757Z,1001.87
2022-10-15T12:01:27.990Z,1001.87
2022-10-15T12:02:28.009Z,1001.83
2022-10-15T12:03:28.763Z,1001.85
2022-10-15T12:04:31.831Z,1001.82
2022-10-15T12:05:27.394Z,1001.83
2022-10-15T12:06:27.609Z,1001.75
2022-10-15T12:07:27.680Z,1001.88
2022-10-15T12:08:29.416Z,1001.81
2022-10-15T12:09:27.988Z,1001.76
2022-10-15T12:10:28.144Z,1001.75
2022-10-15T12:11:29.372Z,1001.75
2022-10-15T12:12:28.469Z,1001.78
2022-10-15T12:13:29.252Z,1001.76
2022-10-15T12:14:30.503Z,1001.80
2022-10-15T12:15:28.925Z,1001.71
2022-10-15T12:16:30.638Z,1001.75
2022-10-15T12:17:29.227Z,1001.71
2022-10-15T12:18:30.388Z,1001.70
2022-10-15T12:19:31.112Z,1001.65
2022-10-15T12:20:29.698Z,1001.63
2022-10-15T12:21:30.917Z,1001.59
2022-10-15T12:22:33.597Z,1001.66
2022-10-15T12:23:31.712Z,1001.65
2022-10-15T12:24:31.934Z,1001.60
2022-10-15T12:25:30.408Z,1001.54
2022-10-15T12:26:30.461Z,1001.53
2022-10-15T12:27:33.187Z,1001.52
2022-10-15T12:28:30.817Z,1001.45
2022-10-15T12:29:32.456Z,1001.47
2022-10-15T12:30:32.711Z,1001.49
2022-10-15T12:31:35.050Z,1001.48
2022-10-15T12:32:33.927Z,1001.49
2022-10-15T12:33:33.154Z,1001.50
2022-10-15T12:34:33.376Z,1001.47
2022-10-15T12:35:31.678Z,1001.47
2022-10-15T12:36:31.826Z,1001.45
2022-10-15T12:37:31.972Z,1001.45
2022-10-15T12:38:32.149Z,1001.42
2022-10-15T12:39:51.330Z,1001.45
2022-10-15T12:40:33.415Z,1001.39
2022-10-15T12:41:32.579Z,1001.35
2022-10-15T12:42:32.695Z,1001.32
2022-10-15T12:43:32.856Z,1001.37
2022-10-15T12:44:34.576Z,1001.33
2022-10-15T12:45:37.448Z,1001.35
2022-10-15T12:46:34.385Z,1001.30
2022-10-15T12:47:33.387Z,1001.27
2022-10-15T12:48:33.552Z,1001.29
2022-10-15T12:49:35.260Z,1001.26
2022-10-15T12:50:33.787Z,1001.34
2022-10-15T12:51:35.473Z,1001.30
2022-10-15T12:52:34.067Z,1001.32
2022-10-15T12:54:34.326Z,1001.34
2022-10-15T12:55:36.049Z,1001.29
2022-10-15T12:56:34.665Z,1001.30
2022-10-15T12:57:36.370Z,1001.35
2022-10-15T12:58:36.624Z,1001.35
2022-10-15T12:59:36.054Z,1001.32
2022-10-15T13:00:36.841Z,1001.33
2022-10-15T13:01:36.365Z,1001.35
2022-10-15T13:02:37.083Z,1001.30
2022-10-15T13:03:37.326Z,1001.35
2022-10-15T13:04:35.723Z,1001.30
2022-10-15T13:05:37.462Z,1001.32
2022-10-15T13:06:37.076Z,1001.28
2022-10-15T13:07:37.763Z,1001.33
2022-10-15T13:08:37.524Z,1001.32
2022-10-15T13:09:37.474Z,1001.30
2022-10-15T13:10:36.624Z,1001.30
2022-10-15T13:11:37.755Z,1001.32
2022-10-15T13:12:36.926Z,1001.27
2022-10-15T13:13:38.623Z,1001.23
2022-10-15T13:14:37.153Z,1001.26
2022-10-15T13:15:37.306Z,1001.28
2022-10-15T13:16:37.430Z,1001.27
2022-10-15T13:17:37.512Z,1001.26
2022-10-15T13:18:39.256Z,1001.32
2022-10-15T13:19:39.473Z,1001.34
2022-10-15T13:20:39.720Z,1001.26
2022-10-15T13:21:38.051Z,1001.32
2022-10-15T13:22:39.800Z,1001.31
2022-10-15T13:23:39.531Z,1001.31
2022-10-15T13:24:40.264Z,1001.27
2022-10-15T13:25:40.500Z,1001.29
2022-10-15T13:26:40.723Z,1001.28
2022-10-15T13:27:40.430Z,1001.28
2022-10-15T13:28:40.749Z,1001.29
2022-10-15T13:29:39.150Z,1001.24
2022-10-15T13:30:40.890Z,1001.22
2022-10-15T13:31:41.124Z,1001.23
2022-10-15T13:32:41.354Z,1001.25
2022-10-15T13:33:41.552Z,1001.25
2022-10-15T13:34:39.910Z,1001.21
2022-10-15T13:35:40.033Z,1001.26
2022-10-15T13:36:41.752Z,1001.18
2022-10-15T13:37:41.979Z,1001.26
2022-10-15T13:38:42.841Z,1001.24
2022-10-15T13:39:41.586Z,1001.24
2022-10-15T13:40:40.707Z,1001.25
2022-10-15T13:41:40.863Z,1001.22
2022-10-15T13:42:42.579Z,1001.22
2022-10-15T13:43:41.118Z,1001.19
2022-10-15T13:44:41.277Z,1001.18
2022-10-15T13:45:41.427Z,1001.25
2022-10-15T13:46:42.648Z,1001.15
2022-10-15T13:47:41.728Z,1001.21
2022-10-15T13:49:43.597Z,1001.23
2022-10-15T13:50:42.138Z,1001.26
2022-10-15T13:51:42.238Z,1001.19
2022-10-15T13:52:43.957Z,1001.21
2022-10-15T13:53:44.201Z,1001.22
2022-10-15T13:54:44.486Z,1001.20
2022-10-15T13:55:44.718Z,1001.14
2022-10-15T13:56:49.421Z,1001.17
2022-10-15T13:58:43.268Z,1001.19
2022-10-15T13:59:45.006Z,1001.21
2022-10-15T14:00:45.311Z,1001.23
2022-10-15T14:01:45.485Z,1001.16
2022-10-15T14:02:45.716Z,1001.16
2022-10-15T14:03:45.956Z,1001.16
2022-10-15T14:04:46.710Z,1001.19
2022-10-15T14:05:45.911Z,1001.19
2022-10-15T14:06:46.178Z,1001.18
2022-10-15T14:07:46.325Z,1001.14
2022-10-15T14:08:46.664Z,1001.14
2022-10-15T14:09:46.405Z,1001.15
2022-10-15T14:10:44.915Z,1001.12
2022-10-15T14:11:46.645Z,1001.12
2022-10-15T14:12:46.874Z,1001.12
2022-10-15T14:13:47.088Z,1001.08
2022-10-15T14:14:47.314Z,1001.07
2022-10-15T14:15:47.556Z,1001.11
2022-10-15T14:16:47.296Z,1001.08
2022-10-15T14:17:45.766Z,1001.10
2022-10-15T14:18:48.968Z,1001.16
2022-10-15T14:19:47.262Z,1001.10
2022-10-15T14:20:46.785Z,1001.18
2022-10-15T14:21:47.064Z,1001.12
2022-10-15T14:22:48.244Z,1001.13
2022-10-15T14:23:47.580Z,1001.16
2022-10-15T14:24:48.338Z,1001.15
2022-10-15T14:25:48.566Z,1001.13
2022-10-15T14:26:48.784Z,1001.08
2022-10-15T14:27:49.031Z,1001.11
2022-10-15T14:28:49.293Z,1001.14
2022-10-15T14:29:48.952Z,1001.16
2022-10-15T14:30:49.215Z,1001.18
2022-10-15T14:31:49.452Z,1001.20
2022-10-15T14:32:49.685Z,1001.21
2022-10-15T14:33:49.063Z,1001.25
2022-10-15T14:34:49.853Z,1001.20
2022-10-15T14:35:50.102Z,1001.24
2022-10-15T14:36:50.342Z,1001.29
2022-10-15T14:37:50.562Z,1001.24
2022-10-15T14:38:50.771Z,1001.25
2022-10-15T14:39:50.504Z,1001.23
2022-10-15T14:40:50.753Z,1001.29
2022-10-15T14:41:50.972Z,1001.32
2022-10-15T14:42:51.221Z,1001.28
2022-10-15T14:43:51.444Z,1001.30
2022-10-15T14:44:51.215Z,1001.24
2022-10-15T14:45:49.801Z,1001.24
2022-10-15T14:46:51.538Z,1001.18
2022-10-15T14:47:50.110Z,1001.24
2022-10-15T14:48:50.261Z,1001.27
2022-10-15T14:49:50.412Z,1001.27
2022-10-15T14:50:51.512Z,1001.30
2022-10-15T14:51:52.295Z,1001.32
2022-10-15T14:52:50.840Z,1001.30
2022-10-15T14:53:50.961Z,1001.30
2022-10-15T14:54:51.135Z,1001.26
2022-10-15T14:55:51.294Z,1001.28
2022-10-15T14:56:53.033Z,1001.29
2022-10-15T14:57:53.278Z,1001.22
2022-10-15T14:58:53.507Z,1001.30
2022-10-15T14:59:51.768Z,1001.22
2022-10-15T15:00:53.550Z,1001.17
2022-10-15T15:01:52.029Z,1001.21
2022-10-15T15:02:52.254Z,1001.27
2022-10-15T15:03:53.907Z,1001.24
2022-10-15T15:04:52.480Z,1001.26
2022-10-15T15:05:52.579Z,1001.28
2022-10-15T15:06:52.750Z,1001.25
2022-10-15T15:07:54.468Z,1001.26
2022-10-15T15:08:53.699Z,1001.26
2022-10-15T15:09:54.932Z,1001.25
2022-10-15T15:10:55.160Z,1001.28
2022-10-15T15:11:55.387Z,1001.24
2022-10-15T15:12:55.118Z,1001.27
2022-10-15T15:13:53.638Z,1001.24
2022-10-15T15:14:55.367Z,1001.27
2022-10-15T15:15:55.600Z,1001.24
2022-10-15T15:16:55.833Z,1001.27
2022-10-15T15:17:56.041Z,1001.28
2022-10-15T15:18:56.312Z,1001.25
2022-10-15T15:19:56.057Z,1001.20
2022-10-15T15:20:55.469Z,1001.15
2022-10-15T15:21:55.627Z,1001.25
2022-10-15T15:22:54.864Z,1001.25
2022-10-15T15:23:54.949Z,1001.24
2022-10-15T15:24:56.678Z,1001.29
2022-10-15T15:25:56.018Z,1001.27
2022-10-15T15:26:56.173Z,1001.28
2022-10-15T15:27:56.374Z,1001.32
2022-10-15T15:28:56.530Z,1001.32
2022-10-15T15:29:57.387Z,1001.31
2022-10-15T15:30:56.814Z,1001.29
2022-10-15T15:31:55.977Z,1001.30
2022-10-15T15:32:56.145Z,1001.29
2022-10-15T15:33:57.887Z,1001.31
2022-10-15T15:34:56.427Z,1001.25
2022-10-15T15:35:56.606Z,1001.23
2022-10-15T15:36:58.325Z,1001.30
2022-10-15T15:37:56.813Z,1001.34
2022-10-15T15:38:58.555Z,1001.37
2022-10-15T15:39:58.764Z,1001.37
2022-10-15T15:40:58.985Z,1001.37
2022-10-15T15:41:59.291Z,1001.37
2022-10-15T15:43:00.947Z,1001.44
2022-10-15T15:43:57.628Z,1001.39
2022-10-15T15:44:58.765Z,1001.38
2022-10-15T15:45:57.965Z,1001.39
2022-10-15T15:46:58.045Z,1001.39
2022-10-15T15:47:59.745Z,1001.36
2022-10-15T15:48:58.356Z,1001.38
2022-10-15T15:49:58.474Z,1001.45
2022-10-15T15:50:58.653Z,1001.40
2022-10-15T15:51:58.763Z,1001.36
2022-10-15T15:53:00.545Z,1001.39
2022-10-15T15:53:59.034Z,1001.32
2022-10-15T15:54:59.172Z,1001.36
2022-10-15T15:55:59.342Z,1001.39
2022-10-15T15:57:01.115Z,1001.47
2022-10-15T15:58:01.332Z,1001.41
2022-10-15T15:58:59.712Z,1001.42
2022-10-15T15:59:59.813Z,1001.34
2022-10-15T16:01:01.553Z,1001.41
2022-10-15T16:12:23.218Z,1001.28
2022-10-15T16:13:22.517Z,1001.34
2022-10-15T16:14:21.618Z,1001.34
2022-10-15T16:15:21.713Z,1001.35
2022-10-15T16:16:21.886Z,1001.36
2022-10-15T16:17:23.866Z,1001.34
2022-10-15T16:18:22.096Z,1001.33
2022-10-15T16:19:22.257Z,1001.34
2022-10-15T16:20:23.982Z,1001.37
2022-10-15T16:21:23.506Z,1001.39
2022-10-15T16:22:24.287Z,1001.41
2022-10-15T16:23:22.830Z,1001.39
2022-10-15T16:24:24.597Z,1001.38
2022-10-15T16:25:26.528Z,1001.46
2022-10-15T16:26:23.266Z,1001.38
2022-10-15T16:27:25.370Z,1001.42
2022-10-15T16:28:23.626Z,1001.39
2022-10-15T16:29:25.327Z,1001.39
2022-10-15T16:30:23.833Z,1001.40
2022-10-15T16:31:29.408Z,1001.46